sensor_id;sensor_type;location;lat;lon;timestamp;P1;durP1;ratioP1;P2;durP2;ratioP2
12966;SDS011;6548;49.996;8.238;2023-03-30T00:01:02;10.35;;;3.50;;
12966;SDS011;6548;49.996;8.238;2023-03-30T00:03:37;7.07;;;3.85;;
12966;SDS011;6548;49.996;8.238;2023-03-30T00:06:03;9.65;;;3.90;;
12966;SDS011;6548;49.996;8.238;2023-03-30T00:08:30;6.95;;;3.85;;
12966;SDS011;6548;49.996;8.238;2023-03-30T00:13:37;7.63;;;4.85;;
12966;SDS011;6548;49.996;8.238;2023-03-30T00:16:04;5.45;;;3.08;;
12966;SDS011;6548;49.996;8.238;2023-03-30T00:18:31;7.00;;;3.85;;
12966;SDS011;6548;49.996;8.238;2023-03-30T00:20:58;7.85;;;3.63;;
12966;SDS011;6548;49.996;8.238;2023-03-30T00:23:24;8.55;;;4.07;;
12966;SDS011;6548;49.996;8.238;2023-03-30T00:25:50;6.30;;;3.00;;
12966;SDS011;6548;49.996;8.238;2023-03-30T00:28:15;6.18;;;3.80;;
12966;SDS011;6548;49.996;8.238;2023-03-30T00:30:41;5.30;;;3.60;;
12966;SDS011;6548;49.996;8.238;2023-03-30T00:33:07;5.60;;;3.53;;
12966;SDS011;6548;49.996;8.238;2023-03-30T00:35:32;5.18;;;3.63;;
12966;SDS011;6548;49.996;8.238;2023-03-30T00:37:58;8.98;;;3.97;;
12966;SDS011;6548;49.996;8.238;2023-03-30T00:40:28;6.68;;;3.40;;
12966;SDS011;6548;49.996;8.238;2023-03-30T00:42:59;4.68;;;2.75;;
12966;SDS011;6548;49.996;8.238;2023-03-30T00:45:34;8.63;;;4.18;;
12966;SDS011;6548;49.996;8.238;2023-03-30T00:50:36;8.43;;;3.63;;
12966;SDS011;6548;49.996;8.238;2023-03-30T00:53:26;7.32;;;4.38;;
12966;SDS011;6548;49.996;8.238;2023-03-30T00:55:57;14.18;;;6.00;;
12966;SDS011;6548;49.996;8.238;2023-03-30T00:58:25;4.75;;;3.22;;
12966;SDS011;6548;49.996;8.238;2023-03-30T01:00:52;7.38;;;4.10;;
12966;SDS011;6548;49.996;8.238;2023-03-30T01:03:20;6.20;;;3.28;;
12966;SDS011;6548;49.996;8.238;2023-03-30T01:05:55;7.47;;;4.22;;
12966;SDS011;6548;49.996;8.238;2023-03-30T01:08:24;7.03;;;3.63;;
12966;SDS011;6548;49.996;8.238;2023-03-30T01:10:51;5.40;;;3.85;;
12966;SDS011;6548;49.996;8.238;2023-03-30T01:13:17;7.93;;;3.42;;
12966;SDS011;6548;49.996;8.238;2023-03-30T01:15:50;10.48;;;5.70;;
12966;SDS011;6548;49.996;8.238;2023-03-30T01:18:49;9.57;;;3.97;;
12966;SDS011;6548;49.996;8.238;2023-03-30T01:30:30;6.95;;;3.83;;
12966;SDS011;6548;49.996;8.238;2023-03-30T01:41:57;5.95;;;3.42;;
12966;SDS011;6548;49.996;8.238;2023-03-30T01:50:35;5.38;;;3.38;;
12966;SDS011;6548;49.996;8.238;2023-03-30T01:53:08;7.85;;;3.50;;
12966;SDS011;6548;49.996;8.238;2023-03-30T01:55:54;5.93;;;3.55;;
12966;SDS011;6548;49.996;8.238;2023-03-30T01:58:28;4.88;;;3.17;;
12966;SDS011;6548;49.996;8.238;2023-03-30T02:01:03;8.15;;;3.88;;
12966;SDS011;6548;49.996;8.238;2023-03-30T02:03:32;6.20;;;3.35;;
12966;SDS011;6548;49.996;8.238;2023-03-30T02:06:03;6.60;;;3.65;;
12966;SDS011;6548;49.996;8.238;2023-03-30T02:08:34;7.68;;;3.38;;
12966;SDS011;6548;49.996;8.238;2023-03-30T02:11:01;5.78;;;3.22;;
12966;SDS011;6548;49.996;8.238;2023-03-30T02:13:27;7.85;;;3.88;;
12966;SDS011;6548;49.996;8.238;2023-03-30T02:15:58;8.35;;;3.47;;
12966;SDS011;6548;49.996;8.238;2023-03-30T02:18:25;5.88;;;3.38;;
12966;SDS011;6548;49.996;8.238;2023-03-30T02:20:51;7.68;;;3.50;;
12966;SDS011;6548;49.996;8.238;2023-03-30T02:23:17;5.43;;;3.20;;
12966;SDS011;6548;49.996;8.238;2023-03-30T02:25:47;7.60;;;3.72;;
12966;SDS011;6548;49.996;8.238;2023-03-30T02:28:12;8.07;;;3.50;;
12966;SDS011;6548;49.996;8.238;2023-03-30T02:30:39;7.82;;;3.33;;
12966;SDS011;6548;49.996;8.238;2023-03-30T02:33:07;9.23;;;3.72;;
12966;SDS011;6548;49.996;8.238;2023-03-30T02:35:49;5.35;;;3.17;;
12966;SDS011;6548;49.996;8.238;2023-03-30T02:38:44;5.03;;;3.38;;
12966;SDS011;6548;49.996;8.238;2023-03-30T02:44:54;8.15;;;3.40;;
12966;SDS011;6548;49.996;8.238;2023-03-30T02:47:46;8.38;;;4.28;;
12966;SDS011;6548;49.996;8.238;2023-03-30T02:50:43;8.75;;;3.85;;
12966;SDS011;6548;49.996;8.238;2023-03-30T02:56:27;7.30;;;3.53;;
12966;SDS011;6548;49.996;8.238;2023-03-30T03:01:42;8.30;;;3.85;;
12966;SDS011;6548;49.996;8.238;2023-03-30T03:04:24;8.32;;;3.38;;
12966;SDS011;6548;49.996;8.238;2023-03-30T03:06:52;7.95;;;3.15;;
12966;SDS011;6548;49.996;8.238;2023-03-30T03:09:19;9.50;;;3.60;;
12966;SDS011;6548;49.996;8.238;2023-03-30T03:11:49;5.05;;;3.05;;
12966;SDS011;6548;49.996;8.238;2023-03-30T03:14:15;7.57;;;3.40;;
12966;SDS011;6548;49.996;8.238;2023-03-30T03:16:41;9.18;;;3.85;;
12966;SDS011;6548;49.996;8.238;2023-03-30T03:19:07;10.77;;;3.60;;
12966;SDS011;6548;49.996;8.238;2023-03-30T03:21:33;8.25;;;4.10;;
12966;SDS011;6548;49.996;8.238;2023-03-30T03:23:59;7.60;;;3.83;;
12966;SDS011;6548;49.996;8.238;2023-03-30T03:26:25;9.75;;;3.40;;
12966;SDS011;6548;49.996;8.238;2023-03-30T03:28:51;7.05;;;3.53;;
12966;SDS011;6548;49.996;8.238;2023-03-30T03:31:16;5.47;;;4.15;;
12966;SDS011;6548;49.996;8.238;2023-03-30T03:33:42;7.15;;;3.30;;
12966;SDS011;6548;49.996;8.238;2023-03-30T03:36:08;6.80;;;3.88;;
12966;SDS011;6548;49.996;8.238;2023-03-30T03:38:35;7.53;;;3.53;;
12966;SDS011;6548;49.996;8.238;2023-03-30T03:41:01;10.00;;;4.95;;
12966;SDS011;6548;49.996;8.238;2023-03-30T03:43:27;8.20;;;3.53;;
12966;SDS011;6548;49.996;8.238;2023-03-30T03:45:53;8.55;;;3.45;;
12966;SDS011;6548;49.996;8.238;2023-03-30T03:48:19;8.13;;;4.43;;
12966;SDS011;6548;49.996;8.238;2023-03-30T03:50:53;10.30;;;3.83;;
12966;SDS011;6548;49.996;8.238;2023-03-30T03:53:21;8.02;;;3.42;;
12966;SDS011;6548;49.996;8.238;2023-03-30T03:55:47;5.15;;;2.83;;
12966;SDS011;6548;49.996;8.238;2023-03-30T03:58:13;6.47;;;3.30;;
12966;SDS011;6548;49.996;8.238;2023-03-30T04:00:39;4.80;;;3.08;;
12966;SDS011;6548;49.996;8.238;2023-03-30T04:03:05;4.25;;;2.67;;
12966;SDS011;6548;49.996;8.238;2023-03-30T04:05:31;7.90;;;2.80;;
12966;SDS011;6548;49.996;8.238;2023-03-30T04:07:57;4.18;;;2.60;;
12966;SDS011;6548;49.996;8.238;2023-03-30T04:10:23;7.10;;;3.70;;
12966;SDS011;6548;49.996;8.238;2023-03-30T04:12:49;5.25;;;3.22;;
12966;SDS011;6548;49.996;8.238;2023-03-30T04:15:15;7.80;;;3.25;;
12966;SDS011;6548;49.996;8.238;2023-03-30T04:17:40;5.70;;;3.05;;
12966;SDS011;6548;49.996;8.238;2023-03-30T04:20:08;9.63;;;3.40;;
12966;SDS011;6548;49.996;8.238;2023-03-30T04:22:37;8.05;;;3.97;;
12966;SDS011;6548;49.996;8.238;2023-03-30T04:25:06;7.70;;;3.60;;
12966;SDS011;6548;49.996;8.238;2023-03-30T04:27:38;8.18;;;4.43;;
12966;SDS011;6548;49.996;8.238;2023-03-30T04:30:08;9.63;;;4.00;;
12966;SDS011;6548;49.996;8.238;2023-03-30T04:32:34;10.05;;;5.75;;
12966;SDS011;6548;49.996;8.238;2023-03-30T04:35:05;9.80;;;4.13;;
12966;SDS011;6548;49.996;8.238;2023-03-30T04:37:32;8.40;;;3.75;;
12966;SDS011;6548;49.996;8.238;2023-03-30T04:39:58;8.70;;;3.63;;
12966;SDS011;6548;49.996;8.238;2023-03-30T04:42:25;6.20;;;3.40;;
12966;SDS011;6548;49.996;8.238;2023-03-30T04:44:57;6.72;;;3.75;;
12966;SDS011;6548;49.996;8.238;2023-03-30T04:49:52;8.73;;;3.40;;
12966;SDS011;6548;49.996;8.238;2023-03-30T04:52:18;7.68;;;4.22;;
12966;SDS011;6548;49.996;8.238;2023-03-30T04:54:44;10.70;;;3.90;;
12966;SDS011;6548;49.996;8.238;2023-03-30T04:57:09;14.95;;;6.55;;
12966;SDS011;6548;49.996;8.238;2023-03-30T04:59:37;8.30;;;4.75;;
12966;SDS011;6548;49.996;8.238;2023-03-30T05:02:03;9.07;;;4.57;;
12966;SDS011;6548;49.996;8.238;2023-03-30T05:04:29;11.43;;;4.63;;
12966;SDS011;6548;49.996;8.238;2023-03-30T05:06:55;8.85;;;4.03;;
12966;SDS011;6548;49.996;8.238;2023-03-30T05:09:21;10.88;;;5.03;;
12966;SDS011;6548;49.996;8.238;2023-03-30T05:11:47;17.20;;;8.95;;
12966;SDS011;6548;49.996;8.238;2023-03-30T05:14:13;14.05;;;5.10;;
12966;SDS011;6548;49.996;8.238;2023-03-30T05:16:39;9.48;;;4.80;;
12966;SDS011;6548;49.996;8.238;2023-03-30T05:19:05;16.88;;;5.57;;
12966;SDS011;6548;49.996;8.238;2023-03-30T05:21:31;12.32;;;4.47;;
12966;SDS011;6548;49.996;8.238;2023-03-30T05:23:56;13.73;;;7.15;;
12966;SDS011;6548;49.996;8.238;2023-03-30T05:26:22;13.68;;;7.13;;
12966;SDS011;6548;49.996;8.238;2023-03-30T05:28:48;19.05;;;9.10;;
12966;SDS011;6548;49.996;8.238;2023-03-30T05:31:15;16.27;;;7.70;;
12966;SDS011;6548;49.996;8.238;2023-03-30T05:33:41;14.00;;;6.53;;
12966;SDS011;6548;49.996;8.238;2023-03-30T05:36:06;17.10;;;8.30;;
12966;SDS011;6548;49.996;8.238;2023-03-30T05:38:33;12.35;;;5.85;;
12966;SDS011;6548;49.996;8.238;2023-03-30T05:41:00;14.38;;;6.90;;
12966;SDS011;6548;49.996;8.238;2023-03-30T05:43:26;15.85;;;5.85;;
12966;SDS011;6548;49.996;8.238;2023-03-30T05:45:52;12.23;;;4.05;;
12966;SDS011;6548;49.996;8.238;2023-03-30T05:48:17;9.32;;;3.33;;
12966;SDS011;6548;49.996;8.238;2023-03-30T05:50:45;9.15;;;2.72;;
12966;SDS011;6548;49.996;8.238;2023-03-30T05:53:11;7.57;;;3.40;;
12966;SDS011;6548;49.996;8.238;2023-03-30T05:55:37;13.70;;;2.88;;
12966;SDS011;6548;49.996;8.238;2023-03-30T05:58:02;8.40;;;2.20;;
12966;SDS011;6548;49.996;8.238;2023-03-30T06:00:28;7.28;;;2.53;;
12966;SDS011;6548;49.996;8.238;2023-03-30T06:02:57;11.77;;;4.25;;
12966;SDS011;6548;49.996;8.238;2023-03-30T06:05:23;9.68;;;2.42;;
12966;SDS011;6548;49.996;8.238;2023-03-30T06:07:49;8.77;;;2.38;;
12966;SDS011;6548;49.996;8.238;2023-03-30T06:10:14;11.63;;;2.80;;
12966;SDS011;6548;49.996;8.238;2023-03-30T06:12:40;6.03;;;2.70;;
12966;SDS011;6548;49.996;8.238;2023-03-30T06:15:06;5.80;;;1.67;;
12966;SDS011;6548;49.996;8.238;2023-03-30T06:17:33;11.75;;;2.47;;
12966;SDS011;6548;49.996;8.238;2023-03-30T06:20:00;6.00;;;2.35;;
12966;SDS011;6548;49.996;8.238;2023-03-30T06:22:26;7.78;;;2.90;;
12966;SDS011;6548;49.996;8.238;2023-03-30T06:24:52;6.18;;;1.60;;
12966;SDS011;6548;49.996;8.238;2023-03-30T06:27:18;6.10;;;1.73;;
12966;SDS011;6548;49.996;8.238;2023-03-30T06:29:44;7.75;;;2.28;;
12966;SDS011;6548;49.996;8.238;2023-03-30T06:32:09;7.10;;;2.20;;
12966;SDS011;6548;49.996;8.238;2023-03-30T06:34:35;4.30;;;2.13;;
12966;SDS011;6548;49.996;8.238;2023-03-30T06:37:00;7.78;;;1.48;;
12966;SDS011;6548;49.996;8.238;2023-03-30T06:39:26;6.40;;;2.40;;
12966;SDS011;6548;49.996;8.238;2023-03-30T06:41:55;6.00;;;2.35;;
12966;SDS011;6548;49.996;8.238;2023-03-30T06:44:20;4.05;;;1.77;;
12966;SDS011;6548;49.996;8.238;2023-03-30T06:46:46;9.20;;;2.92;;
12966;SDS011;6548;49.996;8.238;2023-03-30T06:49:12;6.97;;;2.67;;
12966;SDS011;6548;49.996;8.238;2023-03-30T06:51:38;4.60;;;1.92;;
12966;SDS011;6548;49.996;8.238;2023-03-30T06:54:03;5.15;;;3.38;;
12966;SDS011;6548;49.996;8.238;2023-03-30T06:56:29;4.03;;;2.47;;
12966;SDS011;6548;49.996;8.238;2023-03-30T06:58:55;9.93;;;2.15;;
12966;SDS011;6548;49.996;8.238;2023-03-30T07:01:21;3.75;;;1.80;;
12966;SDS011;6548;49.996;8.238;2023-03-30T07:03:47;3.97;;;2.03;;
12966;SDS011;6548;49.996;8.238;2023-03-30T07:06:17;3.08;;;1.90;;
12966;SDS011;6548;49.996;8.238;2023-03-30T07:08:43;9.38;;;2.17;;
12966;SDS011;6548;49.996;8.238;2023-03-30T07:11:09;8.98;;;2.42;;
12966;SDS011;6548;49.996;8.238;2023-03-30T07:13:35;7.57;;;2.58;;
12966;SDS011;6548;49.996;8.238;2023-03-30T07:16:01;7.18;;;2.72;;
12966;SDS011;6548;49.996;8.238;2023-03-30T07:18:27;9.75;;;2.83;;
12966;SDS011;6548;49.996;8.238;2023-03-30T07:20:52;2.92;;;2.05;;
12966;SDS011;6548;49.996;8.238;2023-03-30T07:23:20;12.00;;;2.65;;
12966;SDS011;6548;49.996;8.238;2023-03-30T07:25:46;4.32;;;2.00;;
12966;SDS011;6548;49.996;8.238;2023-03-30T07:28:12;4.95;;;2.22;;
12966;SDS011;6548;49.996;8.238;2023-03-30T07:30:38;4.82;;;2.13;;
12966;SDS011;6548;49.996;8.238;2023-03-30T07:33:03;6.97;;;2.75;;
12966;SDS011;6548;49.996;8.238;2023-03-30T07:35:29;4.40;;;2.67;;
12966;SDS011;6548;49.996;8.238;2023-03-30T07:37:55;6.88;;;2.70;;
12966;SDS011;6548;49.996;8.238;2023-03-30T07:40:21;7.95;;;2.38;;
12966;SDS011;6548;49.996;8.238;2023-03-30T07:42:46;8.43;;;2.80;;
12966;SDS011;6548;49.996;8.238;2023-03-30T07:45:12;4.32;;;2.30;;
12966;SDS011;6548;49.996;8.238;2023-03-30T07:47:38;3.50;;;2.15;;
12966;SDS011;6548;49.996;8.238;2023-03-30T07:50:04;4.97;;;2.28;;
12966;SDS011;6548;49.996;8.238;2023-03-30T07:52:30;4.30;;;2.50;;
12966;SDS011;6548;49.996;8.238;2023-03-30T07:54:57;5.72;;;3.00;;
12966;SDS011;6548;49.996;8.238;2023-03-30T07:57:23;6.32;;;2.50;;
12966;SDS011;6548;49.996;8.238;2023-03-30T07:59:48;7.13;;;2.83;;
12966;SDS011;6548;49.996;8.238;2023-03-30T08:02:14;11.23;;;2.85;;
12966;SDS011;6548;49.996;8.238;2023-03-30T08:04:40;5.45;;;3.58;;
12966;SDS011;6548;49.996;8.238;2023-03-30T08:07:07;5.70;;;2.30;;
12966;SDS011;6548;49.996;8.238;2023-03-30T08:09:33;4.88;;;2.03;;
12966;SDS011;6548;49.996;8.238;2023-03-30T08:11:59;3.35;;;2.97;;
12966;SDS011;6548;49.996;8.238;2023-03-30T08:14:25;3.92;;;2.17;;
12966;SDS011;6548;49.996;8.238;2023-03-30T08:16:54;4.22;;;2.20;;
12966;SDS011;6548;49.996;8.238;2023-03-30T08:19:21;7.40;;;2.85;;
12966;SDS011;6548;49.996;8.238;2023-03-30T08:21:48;2.47;;;1.65;;
12966;SDS011;6548;49.996;8.238;2023-03-30T08:24:14;7.47;;;2.80;;
12966;SDS011;6548;49.996;8.238;2023-03-30T08:26:39;6.60;;;2.00;;
12966;SDS011;6548;49.996;8.238;2023-03-30T08:29:06;4.93;;;2.22;;
12966;SDS011;6548;49.996;8.238;2023-03-30T08:31:32;5.32;;;2.90;;
12966;SDS011;6548;49.996;8.238;2023-03-30T08:33:58;2.78;;;1.48;;
12966;SDS011;6548;49.996;8.238;2023-03-30T08:36:24;4.25;;;2.45;;
12966;SDS011;6548;49.996;8.238;2023-03-30T08:38:50;6.53;;;2.40;;
12966;SDS011;6548;49.996;8.238;2023-03-30T08:46:45;5.80;;;3.42;;
12966;SDS011;6548;49.996;8.238;2023-03-30T08:49:13;3.25;;;1.80;;
12966;SDS011;6548;49.996;8.238;2023-03-30T08:51:42;5.00;;;2.67;;
12966;SDS011;6548;49.996;8.238;2023-03-30T08:54:14;3.15;;;1.45;;
12966;SDS011;6548;49.996;8.238;2023-03-30T08:59:39;3.65;;;1.83;;
12966;SDS011;6548;49.996;8.238;2023-03-30T09:02:16;4.95;;;1.88;;
12966;SDS011;6548;49.996;8.238;2023-03-30T09:05:01;4.35;;;2.72;;
12966;SDS011;6548;49.996;8.238;2023-03-30T09:07:30;7.90;;;3.83;;
12966;SDS011;6548;49.996;8.238;2023-03-30T09:09:58;8.65;;;3.28;;
12966;SDS011;6548;49.996;8.238;2023-03-30T09:12:35;3.55;;;2.10;;
12966;SDS011;6548;49.996;8.238;2023-03-30T09:15:14;3.95;;;2.50;;
12966;SDS011;6548;49.996;8.238;2023-03-30T09:17:43;2.85;;;2.10;;
12966;SDS011;6548;49.996;8.238;2023-03-30T09:22:52;6.22;;;2.47;;
12966;SDS011;6548;49.996;8.238;2023-03-30T09:25:23;6.00;;;2.70;;
12966;SDS011;6548;49.996;8.238;2023-03-30T09:28:11;4.38;;;2.40;;
12966;SDS011;6548;49.996;8.238;2023-03-30T09:30:48;4.70;;;2.42;;
12966;SDS011;6548;49.996;8.238;2023-03-30T09:35:56;4.57;;;2.35;;
12966;SDS011;6548;49.996;8.238;2023-03-30T09:38:38;4.80;;;2.92;;
12966;SDS011;6548;49.996;8.238;2023-03-30T09:41:17;3.47;;;2.67;;
12966;SDS011;6548;49.996;8.238;2023-03-30T09:43:50;4.70;;;2.58;;
12966;SDS011;6548;49.996;8.238;2023-03-30T09:46:16;4.20;;;1.70;;
12966;SDS011;6548;49.996;8.238;2023-03-30T09:48:42;6.43;;;2.45;;
12966;SDS011;6548;49.996;8.238;2023-03-30T09:51:13;2.90;;;2.10;;
12966;SDS011;6548;49.996;8.238;2023-03-30T09:53:42;5.03;;;2.28;;
12966;SDS011;6548;49.996;8.238;2023-03-30T09:56:15;5.85;;;2.67;;
12966;SDS011;6548;49.996;8.238;2023-03-30T09:58:44;6.85;;;2.38;;
12966;SDS011;6548;49.996;8.238;2023-03-30T10:01:17;4.65;;;2.40;;
12966;SDS011;6548;49.996;8.238;2023-03-30T10:03:44;3.40;;;1.92;;
12966;SDS011;6548;49.996;8.238;2023-03-30T10:06:29;5.18;;;2.13;;
12966;SDS011;6548;49.996;8.238;2023-03-30T10:08:56;5.60;;;2.53;;
12966;SDS011;6548;49.996;8.238;2023-03-30T10:11:39;5.10;;;2.00;;
12966;SDS011;6548;49.996;8.238;2023-03-30T10:16:56;3.38;;;1.48;;
12966;SDS011;6548;49.996;8.238;2023-03-30T10:19:23;2.20;;;1.23;;
12966;SDS011;6548;49.996;8.238;2023-03-30T10:21:51;4.55;;;1.95;;
12966;SDS011;6548;49.996;8.238;2023-03-30T10:24:20;3.63;;;1.95;;
12966;SDS011;6548;49.996;8.238;2023-03-30T10:26:49;4.05;;;1.05;;
12966;SDS011;6548;49.996;8.238;2023-03-30T10:29:17;3.70;;;1.20;;
12966;SDS011;6548;49.996;8.238;2023-03-30T10:31:46;1.85;;;1.00;;
12966;SDS011;6548;49.996;8.238;2023-03-30T10:34:15;6.07;;;1.73;;
12966;SDS011;6548;49.996;8.238;2023-03-30T10:36:45;4.57;;;1.50;;
12966;SDS011;6548;49.996;8.238;2023-03-30T10:41:48;2.38;;;1.23;;
12966;SDS011;6548;49.996;8.238;2023-03-30T10:55:28;2.78;;;0.88;;
12966;SDS011;6548;49.996;8.238;2023-03-30T11:05:49;4.10;;;1.35;;
12966;SDS011;6548;49.996;8.238;2023-03-30T11:08:22;4.75;;;1.73;;
12966;SDS011;6548;49.996;8.238;2023-03-30T11:10:53;1.60;;;1.08;;
12966;SDS011;6548;49.996;8.238;2023-03-30T11:16:04;8.68;;;1.50;;
12966;SDS011;6548;49.996;8.238;2023-03-30T11:18:39;2.47;;;0.82;;
12966;SDS011;6548;49.996;8.238;2023-03-30T11:21:16;4.28;;;1.23;;
12966;SDS011;6548;49.996;8.238;2023-03-30T11:24:03;6.32;;;1.35;;
12966;SDS011;6548;49.996;8.238;2023-03-30T11:26:52;3.55;;;1.60;;
12966;SDS011;6548;49.996;8.238;2023-03-30T11:29:43;1.95;;;0.95;;
12966;SDS011;6548;49.996;8.238;2023-03-30T11:37:39;1.92;;;0.65;;
12966;SDS011;6548;49.996;8.238;2023-03-30T11:40:17;4.03;;;1.52;;
12966;SDS011;6548;49.996;8.238;2023-03-30T11:42:59;2.17;;;0.70;;
12966;SDS011;6548;49.996;8.238;2023-03-30T11:45:34;2.67;;;1.27;;
12966;SDS011;6548;49.996;8.238;2023-03-30T11:51:24;3.35;;;0.88;;
12966;SDS011;6548;49.996;8.238;2023-03-30T11:53:52;2.33;;;1.20;;
12966;SDS011;6548;49.996;8.238;2023-03-30T11:56:44;2.17;;;0.95;;
12966;SDS011;6548;49.996;8.238;2023-03-30T12:07:11;4.65;;;1.02;;
12966;SDS011;6548;49.996;8.238;2023-03-30T12:09:53;5.38;;;1.10;;
12966;SDS011;6548;49.996;8.238;2023-03-30T12:12:26;12.10;;;0.95;;
12966;SDS011;6548;49.996;8.238;2023-03-30T12:20:47;2.60;;;0.70;;
12966;SDS011;6548;49.996;8.238;2023-03-30T12:26:33;0.88;;;0.55;;
12966;SDS011;6548;49.996;8.238;2023-03-30T12:29:11;1.42;;;0.70;;
12966;SDS011;6548;49.996;8.238;2023-03-30T12:34:13;1.60;;;0.98;;
12966;SDS011;6548;49.996;8.238;2023-03-30T12:36:40;1.85;;;0.52;;
12966;SDS011;6548;49.996;8.238;2023-03-30T12:39:17;5.43;;;0.80;;
12966;SDS011;6548;49.996;8.238;2023-03-30T12:41:51;6.88;;;1.27;;
12966;SDS011;6548;49.996;8.238;2023-03-30T12:44:33;3.50;;;0.90;;
12966;SDS011;6548;49.996;8.238;2023-03-30T12:50:26;5.38;;;1.38;;
12966;SDS011;6548;49.996;8.238;2023-03-30T12:56:21;4.95;;;0.80;;
12966;SDS011;6548;49.996;8.238;2023-03-30T12:59:16;3.47;;;1.10;;
12966;SDS011;6548;49.996;8.238;2023-03-30T13:02:00;1.95;;;0.65;;
12966;SDS011;6548;49.996;8.238;2023-03-30T13:04:37;1.88;;;0.70;;
12966;SDS011;6548;49.996;8.238;2023-03-30T13:07:05;3.38;;;1.00;;
12966;SDS011;6548;49.996;8.238;2023-03-30T13:09:52;4.80;;;1.10;;
12966;SDS011;6548;49.996;8.238;2023-03-30T13:20:33;2.75;;;1.02;;
12966;SDS011;6548;49.996;8.238;2023-03-30T13:39:44;3.15;;;0.80;;
12966;SDS011;6548;49.996;8.238;2023-03-30T13:42:27;4.60;;;1.15;;
12966;SDS011;6548;49.996;8.238;2023-03-30T13:51:13;2.72;;;0.95;;
12966;SDS011;6548;49.996;8.238;2023-03-30T13:54:25;2.00;;;1.17;;
12966;SDS011;6548;49.996;8.238;2023-03-30T13:56:36;2.08;;;0.65;;
12966;SDS011;6548;49.996;8.238;2023-03-30T13:59:06;4.97;;;0.85;;
12966;SDS011;6548;49.996;8.238;2023-03-30T14:01:37;4.35;;;1.00;;
12966;SDS011;6548;49.996;8.238;2023-03-30T14:04:04;1.33;;;0.43;;
12966;SDS011;6548;49.996;8.238;2023-03-30T14:06:36;1.52;;;0.60;;
12966;SDS011;6548;49.996;8.238;2023-03-30T14:09:12;1.45;;;0.65;;
12966;SDS011;6548;49.996;8.238;2023-03-30T14:11:44;0.82;;;0.50;;
12966;SDS011;6548;49.996;8.238;2023-03-30T14:14:24;1.60;;;0.70;;
12966;SDS011;6548;49.996;8.238;2023-03-30T14:16:54;1.50;;;1.05;;
12966;SDS011;6548;49.996;8.238;2023-03-30T14:19:22;1.88;;;1.00;;
12966;SDS011;6548;49.996;8.238;2023-03-30T14:22:37;5.63;;;1.25;;
12966;SDS011;6548;49.996;8.238;2023-03-30T14:24:47;3.42;;;0.80;;
12966;SDS011;6548;49.996;8.238;2023-03-30T14:27:24;2.97;;;0.95;;
12966;SDS011;6548;49.996;8.238;2023-03-30T14:29:50;4.15;;;1.30;;
12966;SDS011;6548;49.996;8.238;2023-03-30T14:32:17;2.30;;;1.17;;
12966;SDS011;6548;49.996;8.238;2023-03-30T14:34:49;5.20;;;1.40;;
12966;SDS011;6548;49.996;8.238;2023-03-30T14:37:16;4.55;;;1.23;;
12966;SDS011;6548;49.996;8.238;2023-03-30T14:39:44;4.05;;;1.23;;
12966;SDS011;6548;49.996;8.238;2023-03-30T14:42:16;4.93;;;1.20;;
12966;SDS011;6548;49.996;8.238;2023-03-30T14:44:44;2.75;;;0.75;;
12966;SDS011;6548;49.996;8.238;2023-03-30T14:47:12;2.88;;;0.80;;
12966;SDS011;6548;49.996;8.238;2023-03-30T14:49:39;2.95;;;0.93;;
12966;SDS011;6548;49.996;8.238;2023-03-30T14:54:44;4.75;;;0.82;;
12966;SDS011;6548;49.996;8.238;2023-03-30T14:57:14;4.35;;;0.88;;
12966;SDS011;6548;49.996;8.238;2023-03-30T14:59:43;2.58;;;0.95;;
12966;SDS011;6548;49.996;8.238;2023-03-30T15:02:19;1.85;;;0.85;;
12966;SDS011;6548;49.996;8.238;2023-03-30T15:04:47;3.70;;;0.95;;
12966;SDS011;6548;49.996;8.238;2023-03-30T15:07:14;4.45;;;1.00;;
12966;SDS011;6548;49.996;8.238;2023-03-30T15:09:41;1.58;;;0.90;;
12966;SDS011;6548;49.996;8.238;2023-03-30T15:12:11;2.78;;;0.77;;
12966;SDS011;6548;49.996;8.238;2023-03-30T15:14:52;3.47;;;1.10;;
12966;SDS011;6548;49.996;8.238;2023-03-30T15:17:22;2.90;;;0.80;;
12966;SDS011;6548;49.996;8.238;2023-03-30T15:19:51;4.22;;;1.10;;
12966;SDS011;6548;49.996;8.238;2023-03-30T15:24:57;3.05;;;0.80;;
12966;SDS011;6548;49.996;8.238;2023-03-30T15:27:25;3.53;;;1.02;;
12966;SDS011;6548;49.996;8.238;2023-03-30T15:29:54;2.08;;;0.90;;
12966;SDS011;6548;49.996;8.238;2023-03-30T15:32:33;3.13;;;0.70;;
12966;SDS011;6548;49.996;8.238;2023-03-30T15:37:51;2.95;;;1.55;;
12966;SDS011;6548;49.996;8.238;2023-03-30T15:40:35;2.70;;;1.65;;
12966;SDS011;6548;49.996;8.238;2023-03-30T15:43:16;3.13;;;1.30;;
12966;SDS011;6548;49.996;8.238;2023-03-30T15:45:53;3.15;;;1.13;;
12966;SDS011;6548;49.996;8.238;2023-03-30T15:48:26;2.85;;;1.13;;
12966;SDS011;6548;49.996;8.238;2023-03-30T15:51:01;2.78;;;0.70;;
12966;SDS011;6548;49.996;8.238;2023-03-30T15:53:32;2.95;;;0.95;;
12966;SDS011;6548;49.996;8.238;2023-03-30T15:56:20;1.60;;;1.05;;
12966;SDS011;6548;49.996;8.238;2023-03-30T15:59:10;5.35;;;1.27;;
12966;SDS011;6548;49.996;8.238;2023-03-30T16:01:43;6.50;;;1.40;;
12966;SDS011;6548;49.996;8.238;2023-03-30T16:04:20;1.80;;;0.65;;
12966;SDS011;6548;49.996;8.238;2023-03-30T16:06:47;1.13;;;0.50;;
12966;SDS011;6548;49.996;8.238;2023-03-30T16:09:14;3.47;;;1.20;;
12966;SDS011;6548;49.996;8.238;2023-03-30T16:11:40;7.05;;;1.75;;
12966;SDS011;6548;49.996;8.238;2023-03-30T16:14:09;2.95;;;1.35;;
12966;SDS011;6548;49.996;8.238;2023-03-30T16:16:36;2.17;;;0.77;;
12966;SDS011;6548;49.996;8.238;2023-03-30T16:19:02;2.00;;;0.68;;
12966;SDS011;6548;49.996;8.238;2023-03-30T16:21:27;3.72;;;0.80;;
12966;SDS011;6548;49.996;8.238;2023-03-30T16:23:53;2.25;;;0.70;;
12966;SDS011;6548;49.996;8.238;2023-03-30T16:26:18;3.80;;;0.90;;
12966;SDS011;6548;49.996;8.238;2023-03-30T16:28:44;1.80;;;0.63;;
12966;SDS011;6548;49.996;8.238;2023-03-30T16:31:16;1.45;;;0.63;;
12966;SDS011;6548;49.996;8.238;2023-03-30T16:33:44;1.15;;;0.70;;
12966;SDS011;6548;49.996;8.238;2023-03-30T16:36:11;2.47;;;0.65;;
12966;SDS011;6548;49.996;8.238;2023-03-30T16:38:39;2.22;;;0.50;;
12966;SDS011;6548;49.996;8.238;2023-03-30T16:41:05;3.13;;;0.98;;
12966;SDS011;6548;49.996;8.238;2023-03-30T16:43:34;4.63;;;1.30;;
12966;SDS011;6548;49.996;8.238;2023-03-30T16:46:00;2.72;;;0.60;;
12966;SDS011;6548;49.996;8.238;2023-03-30T16:48:25;1.85;;;0.70;;
12966;SDS011;6548;49.996;8.238;2023-03-30T16:50:52;3.05;;;0.70;;
12966;SDS011;6548;49.996;8.238;2023-03-30T16:53:18;5.63;;;0.98;;
12966;SDS011;6548;49.996;8.238;2023-03-30T16:55:44;2.03;;;0.77;;
12966;SDS011;6548;49.996;8.238;2023-03-30T16:58:10;3.53;;;1.25;;
12966;SDS011;6548;49.996;8.238;2023-03-30T17:00:51;2.42;;;0.70;;
12966;SDS011;6548;49.996;8.238;2023-03-30T17:03:18;3.75;;;1.80;;
12966;SDS011;6548;49.996;8.238;2023-03-30T17:05:44;4.18;;;0.80;;
12966;SDS011;6548;49.996;8.238;2023-03-30T17:08:25;2.33;;;0.80;;
12966;SDS011;6548;49.996;8.238;2023-03-30T17:10:52;4.72;;;0.90;;
12966;SDS011;6548;49.996;8.238;2023-03-30T17:13:20;1.83;;;0.70;;
12966;SDS011;6548;49.996;8.238;2023-03-30T17:15:46;3.67;;;1.05;;
12966;SDS011;6548;49.996;8.238;2023-03-30T17:18:13;4.55;;;1.77;;
12966;SDS011;6548;49.996;8.238;2023-03-30T17:20:44;3.08;;;1.35;;
12966;SDS011;6548;49.996;8.238;2023-03-30T17:23:12;2.78;;;0.70;;
12966;SDS011;6548;49.996;8.238;2023-03-30T17:25:40;4.85;;;1.02;;
12966;SDS011;6548;49.996;8.238;2023-03-30T17:28:07;5.00;;;1.00;;
12966;SDS011;6548;49.996;8.238;2023-03-30T17:30:35;3.30;;;0.93;;
12966;SDS011;6548;49.996;8.238;2023-03-30T17:33:06;4.57;;;1.15;;
12966;SDS011;6548;49.996;8.238;2023-03-30T17:35:36;6.55;;;3.42;;
12966;SDS011;6548;49.996;8.238;2023-03-30T17:38:03;2.95;;;1.15;;
12966;SDS011;6548;49.996;8.238;2023-03-30T17:40:33;2.58;;;1.25;;
12966;SDS011;6548;49.996;8.238;2023-03-30T17:43:06;4.25;;;1.20;;
12966;SDS011;6548;49.996;8.238;2023-03-30T17:45:32;2.95;;;1.10;;
12966;SDS011;6548;49.996;8.238;2023-03-30T17:48:02;2.50;;;1.00;;
12966;SDS011;6548;49.996;8.238;2023-03-30T17:52:57;5.38;;;1.63;;
12966;SDS011;6548;49.996;8.238;2023-03-30T17:55:24;4.38;;;1.20;;